Time;durP1;ratioP1;P1;durP2;ratioP2;P2;SDS_P1;SDS_P2;PMS_P1;PMS_P2;Temp;Humidity;BMP_temperature;BMP_pressure;BME280_temperature;BME280_humidity;BME280_pressure;Samples;Min_cycle;Max_cycle;Signal;HPM_P1;HPM_P2
2021/12/10 00:00:49;;;;;;;21.80;12.10;;;;;;;;;;4840622;29;20040;-71
2021/12/10 00:03:25;;;;;;;22.70;12.65;;;;;;;;;;4855866;29;20078;-67
2021/12/10 00:05:58;;;;;;;23.15;12.60;;;;;;;;;;4859494;29;20040;-67
2021/12/10 00:08:27;;;;;;;21.70;12.35;;;;;;;;;;4859329;29;20040;-68
2021/12/10 00:10:56;;;;;;;25.45;11.98;;;;;;;;;;4849894;29;20045;-67
2021/12/10 00:13:22;;;;;;;21.45;12.02;;;;;;;;;;4840433;29;20022;-70
2021/12/10 00:15:51;;;;;;;21.40;11.27;;;;;;;;;;4841711;29;20525;-67
2021/12/10 00:18:18;;;;;;;20.42;10.90;;;;;;;;;;4846851;29;20034;-67
2021/12/10 00:20:46;;;;;;;22.20;11.07;;;;;;;;;;4856986;29;20045;-67
2021/12/10 00:23:16;;;;;;;21.50;11.77;;;;;;;;;;4853881;29;20041;-67
2021/12/10 00:25:51;;;;;;;20.48;11.20;;;;;;;;;;4858817;29;20048;-67
2021/12/10 00:28:24;;;;;;;18.67;11.02;;;;;;;;;;4842765;29;20038;-66
2021/12/10 00:33:49;;;;;;;;;;;;;;;;;;4848019;29;20046;-68
2021/12/10 00:36:15;;;;;;;20.65;11.40;;;;;;;;;;4854758;29;19930;-70
2021/12/10 00:38:41;;;;;;;20.83;12.13;;;;;;;;;;4858580;29;20033;-70
2021/12/10 00:41:08;;;;;;;22.77;11.93;;;;;;;;;;4858243;29;20051;-71
2021/12/10 00:43:35;;;;;;;27.63;10.65;;;;;;;;;;4856351;29;20029;-71
2021/12/10 00:46:02;;;;;;;17.63;9.30;;;;;;;;;;4846727;29;20045;-72
2021/12/10 00:48:28;;;;;;;18.90;9.90;;;;;;;;;;4864826;29;20050;-67
2021/12/10 00:50:56;;;;;;;17.80;9.85;;;;;;;;;;4863211;29;20052;-67
2021/12/10 00:53:22;;;;;;;19.15;9.38;;;;;;;;;;4856139;29;20041;-67
2021/12/10 00:55:48;;;;;;;18.92;10.18;;;;;;;;;;4859269;29;20049;-67
2021/12/10 00:58:16;;;;;;;16.40;9.30;;;;;;;;;;4857947;29;20386;-66
2021/12/10 01:00:47;;;;;;;20.02;10.05;;;;;;;;;;4858288;29;20405;-67
2021/12/10 01:03:17;;;;;;;22.85;11.40;;;;;;;;;;4858963;29;20056;-67
2021/12/10 01:05:48;;;;;;;32.10;13.68;;;;;;;;;;4859093;29;20130;-67
2021/12/10 01:08:14;;;;;;;23.10;12.00;;;;;;;;;;4857974;29;20097;-66
2021/12/10 01:10:46;;;;;;;25.25;11.25;;;;;;;;;;4858805;29;20030;-67
2021/12/10 01:13:17;;;;;;;22.73;12.38;;;;;;;;;;4858717;29;20038;-67
2021/12/10 01:24:39;;;;;;;22.70;12.25;;;;;;;;;;4858736;29;20034;-67
2021/12/10 01:27:26;;;;;;;26.17;14.05;;;;;;;;;;4858821;29;20489;-67
2021/12/10 01:29:56;;;;;;;27.40;12.88;;;;;;;;;;4857568;29;20049;-66
2021/12/10 01:32:26;;;;;;;27.10;12.57;;;;;;;;;;4858658;29;20070;-67
2021/12/10 01:34:52;;;;;;;25.48;12.52;;;;;;;;;;4858612;29;20037;-66
2021/12/10 01:37:18;;;;;;;28.10;12.60;;;;;;;;;;4859034;29;20394;-66
2021/12/10 01:39:45;;;;;;;26.48;11.70;;;;;;;;;;4858142;29;20129;-66
2021/12/10 01:42:18;;;;;;;29.38;13.73;;;;;;;;;;4852169;29;20142;-67
2021/12/10 01:44:50;;;;;;;23.88;12.52;;;;;;;;;;4855501;29;20034;-66
2021/12/10 01:47:20;;;;;;;24.05;10.88;;;;;;;;;;4858484;29;20133;-67
2021/12/10 01:49:45;;;;;;;20.42;10.50;;;;;;;;;;4857294;29;20430;-67
2021/12/10 01:52:15;;;;;;;20.40;10.75;;;;;;;;;;4859000;29;20048;-66
2021/12/10 01:54:44;;;;;;;16.88;10.38;;;;;;;;;;4858392;29;20041;-67
2021/12/10 01:57:13;;;;;;;20.15;9.25;;;;;;;;;;4858115;29;20077;-67
2021/12/10 01:59:41;;;;;;;18.17;9.27;;;;;;;;;;4857312;29;20415;-67
2021/12/10 02:02:14;;;;;;;14.93;8.80;;;;;;;;;;4857625;29;20041;-66
2021/12/10 02:04:41;;;;;;;14.63;8.68;;;;;;;;;;4857450;29;20037;-67
2021/12/10 02:07:11;;;;;;;15.63;9.13;;;;;;;;;;4857170;29;20029;-68
2021/12/10 02:09:37;;;;;;;21.30;10.55;;;;;;;;;;4857893;29;20110;-67
2021/12/10 02:12:03;;;;;;;14.73;9.25;;;;;;;;;;4858255;29;20033;-67
2021/12/10 02:14:29;;;;;;;14.48;9.13;;;;;;;;;;4859223;29;20121;-66
2021/12/10 02:16:57;;;;;;;16.95;8.88;;;;;;;;;;4858411;29;20105;-67
2021/12/10 02:19:23;;;;;;;16.33;8.80;;;;;;;;;;4859561;29;20052;-67
2021/12/10 02:21:49;;;;;;;18.20;9.15;;;;;;;;;;4861789;29;20033;-69
2021/12/10 02:24:15;;;;;;;14.63;8.70;;;;;;;;;;4861981;29;20037;-66
2021/12/10 02:26:54;;;;;;;17.33;8.07;;;;;;;;;;4861021;29;20086;-67
2021/12/10 02:29:22;;;;;;;13.70;7.30;;;;;;;;;;4861643;29;20133;-67
2021/12/10 02:31:49;;;;;;;14.50;7.00;;;;;;;;;;4860861;29;20054;-67
2021/12/10 02:34:15;;;;;;;12.90;6.18;;;;;;;;;;4861210;29;20060;-67
2021/12/10 02:36:42;;;;;;;11.65;5.40;;;;;;;;;;4861817;29;20469;-67
2021/12/10 02:39:18;;;;;;;12.43;5.75;;;;;;;;;;4861175;29;20131;-67
2021/12/10 02:41:44;;;;;;;9.57;4.30;;;;;;;;;;4860638;29;20038;-67
2021/12/10 02:44:13;;;;;;;11.25;4.43;;;;;;;;;;4861427;29;20033;-67
2021/12/10 02:46:40;;;;;;;9.50;4.40;;;;;;;;;;4861367;29;20029;-67
2021/12/10 02:49:08;;;;;;;9.75;4.22;;;;;;;;;;4860366;29;20065;-68
2021/12/10 02:51:36;;;;;;;9.05;4.70;;;;;;;;;;4860469;29;20374;-67
2021/12/10 02:54:05;;;;;;;8.60;4.90;;;;;;;;;;4860592;29;20025;-67
2021/12/10 02:56:31;;;;;;;9.55;4.65;;;;;;;;;;4861141;29;20136;-67
2021/12/10 02:58:59;;;;;;;13.18;5.22;;;;;;;;;;4860273;29;20101;-67
2021/12/10 03:01:34;;;;;;;15.27;6.32;;;;;;;;;;4861261;29;20037;-67
2021/12/10 03:04:00;;;;;;;11.73;5.97;;;;;;;;;;4860878;29;20124;-67
2021/12/10 03:06:28;;;;;;;9.50;5.93;;;;;;;;;;4860817;29;20080;-67
2021/12/10 03:08:55;;;;;;;12.80;6.40;;;;;;;;;;4859389;29;20044;-67
2021/12/10 03:11:27;;;;;;;14.90;6.70;;;;;;;;;;4860407;29;20033;-67
2021/12/10 03:13:54;;;;;;;11.23;6.75;;;;;;;;;;4860660;29;20374;-67
2021/12/10 03:16:21;;;;;;;12.23;6.47;;;;;;;;;;4860361;29;20041;-67
2021/12/10 03:18:47;;;;;;;15.50;8.02;;;;;;;;;;4860014;29;20089;-66
2021/12/10 03:21:13;;;;;;;15.13;6.93;;;;;;;;;;4859692;29;20048;-67
2021/12/10 03:23:43;;;;;;;11.98;7.55;;;;;;;;;;4860508;29;20053;-67
2021/12/10 03:26:11;;;;;;;13.30;7.47;;;;;;;;;;4860137;29;20116;-67
2021/12/10 03:28:42;;;;;;;17.30;7.30;;;;;;;;;;4860679;29;20029;-67
2021/12/10 03:31:09;;;;;;;13.45;6.28;;;;;;;;;;4859324;29;20040;-67
2021/12/10 03:33:36;;;;;;;13.77;6.93;;;;;;;;;;4859952;29;20482;-67
2021/12/10 03:36:03;;;;;;;16.50;7.03;;;;;;;;;;4859669;29;20065;-67
2021/12/10 03:38:29;;;;;;;15.65;7.70;;;;;;;;;;4860244;29;20380;-67
2021/12/10 03:40:59;;;;;;;12.50;6.82;;;;;;;;;;4858913;29;20049;-67
2021/12/10 03:43:26;;;;;;;12.23;6.38;;;;;;;;;;4859233;29;20042;-66
2021/12/10 03:45:56;;;;;;;11.55;6.10;;;;;;;;;;4859846;29;20037;-67
2021/12/10 03:48:25;;;;;;;12.73;6.18;;;;;;;;;;4858660;29;20053;-67
2021/12/10 03:50:51;;;;;;;9.50;5.50;;;;;;;;;;4859478;29;20499;-67
2021/12/10 03:53:18;;;;;;;10.40;5.97;;;;;;;;;;4859563;29;20481;-67
2021/12/10 03:55:44;;;;;;;10.60;4.85;;;;;;;;;;4859304;29;20120;-67
2021/12/10 03:58:10;;;;;;;9.43;4.75;;;;;;;;;;4859995;29;20034;-67
2021/12/10 04:00:44;;;;;;;12.18;5.78;;;;;;;;;;4860277;29;20029;-67
2021/12/10 04:03:12;;;;;;;11.82;5.93;;;;;;;;;;4859069;29;20045;-67
2021/12/10 04:05:39;;;;;;;12.85;5.22;;;;;;;;;;4859546;29;20049;-66
2021/12/10 04:08:05;;;;;;;9.30;4.80;;;;;;;;;;4858774;29;20440;-65
2021/12/10 04:10:31;;;;;;;11.57;5.05;;;;;;;;;;4858362;29;20116;-67
2021/12/10 04:12:57;;;;;;;10.82;5.53;;;;;;;;;;4859594;29;20048;-67
2021/12/10 04:15:24;;;;;;;11.35;5.20;;;;;;;;;;4858938;29;20037;-66
2021/12/10 04:17:55;;;;;;;11.50;4.95;;;;;;;;;;4859299;29;20529;-66
2021/12/10 04:20:23;;;;;;;9.50;4.93;;;;;;;;;;4859087;29;20052;-66
2021/12/10 04:22:50;;;;;;;10.35;5.57;;;;;;;;;;4859346;29;20110;-66
2021/12/10 04:25:20;;;;;;;7.57;4.53;;;;;;;;;;4859102;29;20415;-66
2021/12/10 04:27:48;;;;;;;10.55;5.75;;;;;;;;;;4858299;29;20029;-68
2021/12/10 04:30:15;;;;;;;8.70;5.72;;;;;;;;;;4859003;29;20033;-66
2021/12/10 04:32:42;;;;;;;13.73;6.85;;;;;;;;;;4858885;29;20056;-66
2021/12/10 04:35:10;;;;;;;14.10;6.10;;;;;;;;;;4858863;29;20484;-68
2021/12/10 04:37:36;;;;;;;10.82;6.20;;;;;;;;;;4859394;29;20481;-66
2021/12/10 04:40:05;;;;;;;10.10;6.10;;;;;;;;;;4857642;29;20021;-66
2021/12/10 04:42:31;;;;;;;13.95;7.38;;;;;;;;;;4858544;29;20049;-67
2021/12/10 04:44:59;;;;;;;12.07;7.78;;;;;;;;;;4859061;29;20029;-67
2021/12/10 04:47:26;;;;;;;13.68;8.40;;;;;;;;;;4844516;29;20045;-69
2021/12/10 04:49:52;;;;;;;13.02;7.72;;;;;;;;;;4856425;29;20485;-66
2021/12/10 04:52:19;;;;;;;13.82;7.45;;;;;;;;;;4858001;29;20080;-66
2021/12/10 04:54:45;;;;;;;11.68;6.60;;;;;;;;;;4859352;29;20545;-67
2021/12/10 04:57:11;;;;;;;12.50;6.85;;;;;;;;;;4859449;29;20045;-67
2021/12/10 04:59:39;;;;;;;15.27;7.18;;;;;;;;;;4858561;29;20033;-67
2021/12/10 05:02:09;;;;;;;12.07;7.20;;;;;;;;;;4858640;29;20074;-66
2021/12/10 05:04:35;;;;;;;13.95;6.70;;;;;;;;;;4859188;29;20034;-71
2021/12/10 05:07:03;;;;;;;13.32;7.63;;;;;;;;;;4856775;29;20064;-68
2021/12/10 05:09:29;;;;;;;15.88;5.90;;;;;;;;;;4858505;29;20401;-68
2021/12/10 05:11:56;;;;;;;13.75;6.80;;;;;;;;;;4856931;29;20026;-67
2021/12/10 05:14:23;;;;;;;9.15;6.20;;;;;;;;;;4859100;29;20046;-67
2021/12/10 05:16:51;;;;;;;12.98;7.15;;;;;;;;;;4858015;29;20040;-67
2021/12/10 05:19:21;;;;;;;11.50;6.70;;;;;;;;;;4858900;29;20497;-66
2021/12/10 05:21:47;;;;;;;10.77;6.57;;;;;;;;;;4858091;29;20051;-67
2021/12/10 05:24:14;;;;;;;13.38;6.82;;;;;;;;;;4857688;29;20030;-67
2021/12/10 05:26:40;;;;;;;9.52;6.32;;;;;;;;;;4858543;29;20045;-66
2021/12/10 05:29:07;;;;;;;7.88;5.15;;;;;;;;;;4857086;29;20038;-67
2021/12/10 05:31:35;;;;;;;10.43;6.43;;;;;;;;;;4857888;29;20080;-68
2021/12/10 05:34:01;;;;;;;10.52;6.25;;;;;;;;;;4857761;29;20045;-67
2021/12/10 05:36:27;;;;;;;8.95;5.95;;;;;;;;;;4857861;29;20038;-67
2021/12/10 05:38:53;;;;;;;13.98;6.57;;;;;;;;;;4852311;29;20030;-66
2021/12/10 05:41:19;;;;;;;8.48;5.95;;;;;;;;;;4839280;29;20554;-67
2021/12/10 05:43:45;;;;;;;10.85;5.95;;;;;;;;;;4840143;29;20514;-68
2021/12/10 05:46:13;;;;;;;13.13;7.45;;;;;;;;;;4839467;29;20505;-67
2021/12/10 05:48:40;;;;;;;12.25;6.13;;;;;;;;;;4840288;29;20470;-68
2021/12/10 05:51:06;;;;;;;12.02;5.60;;;;;;;;;;4839815;29;20046;-68
2021/12/10 05:53:32;;;;;;;11.60;5.68;;;;;;;;;;4839898;29;20029;-67
2021/12/10 05:55:58;;;;;;;8.80;5.40;;;;;;;;;;4844258;29;20041;-67
2021/12/10 05:58:24;;;;;;;9.18;5.32;;;;;;;;;;4844131;29;20034;-68
2021/12/10 06:01:03;;;;;;;9.70;4.47;;;;;;;;;;4857432;29;20048;-71
2021/12/10 06:03:31;;;;;;;8.38;4.20;;;;;;;;;;4861401;29;20042;-72
2021/12/10 06:05:57;;;;;;;12.05;5.38;;;;;;;;;;4854733;29;20042;-72
2021/12/10 06:08:24;;;;;;;8.60;4.80;;;;;;;;;;4843456;29;20545;-71
2021/12/10 06:10:53;;;;;;;9.88;5.65;;;;;;;;;;4842281;29;20053;-72
2021/12/10 06:13:19;;;;;;;10.18;5.45;;;;;;;;;;4843661;29;20042;-76
2021/12/10 06:15:45;;;;;;;9.13;5.25;;;;;;;;;;4847521;29;20044;-72
2021/12/10 06:18:12;;;;;;;13.07;6.75;;;;;;;;;;4855760;29;20041;-71
2021/12/10 06:20:42;;;;;;;17.08;7.82;;;;;;;;;;4845765;29;20385;-71
2021/12/10 06:23:08;;;;;;;13.38;7.15;;;;;;;;;;4842717;29;20038;-75
2021/12/10 06:25:35;;;;;;;13.68;6.68;;;;;;;;;;4844057;29;20491;-74
2021/12/10 06:28:03;;;;;;;13.00;7.10;;;;;;;;;;4843207;29;20042;-74
2021/12/10 06:30:31;;;;;;;14.85;6.97;;;;;;;;;;4843724;29;20041;-69
2021/12/10 06:33:00;;;;;;;12.50;6.40;;;;;;;;;;4843228;29;20042;-71
2021/12/10 06:35:28;;;;;;;12.52;6.10;;;;;;;;;;4843376;29;20037;-70
2021/12/10 06:37:54;;;;;;;9.55;5.80;;;;;;;;;;4842427;29;20090;-75
2021/12/10 06:40:24;;;;;;;11.50;5.50;;;;;;;;;;4850207;29;20057;-72
2021/12/10 06:42:51;;;;;;;8.40;4.82;;;;;;;;;;4860661;29;20037;-76
2021/12/10 06:45:21;;;;;;;8.05;3.95;;;;;;;;;;4862219;29;20029;-70
2021/12/10 06:47:50;;;;;;;8.55;4.78;;;;;;;;;;4855361;29;20832;-77
2021/12/10 06:50:22;;;;;;;7.47;4.07;;;;;;;;;;4862231;29;20071;-75
2021/12/10 06:52:49;;;;;;;7.22;4.25;;;;;;;;;;4860835;29;20045;-76
2021/12/10 06:55:15;;;;;;;10.55;4.45;;;;;;;;;;4862008;29;20022;-73
2021/12/10 06:57:42;;;;;;;7.85;3.58;;;;;;;;;;4859879;29;20417;-72
2021/12/10 07:00:15;;;;;;;13.85;4.50;;;;;;;;;;4859059;29;20433;-72
2021/12/10 07:02:41;;;;;;;11.30;3.92;;;;;;;;;;4860841;29;20057;-73
2021/12/10 07:05:07;;;;;;;4.95;2.10;;;;;;;;;;4847711;29;20034;-74
2021/12/10 07:07:33;;;;;;;5.05;3.30;;;;;;;;;;4841736;29;20049;-75
2021/12/10 07:10:00;;;;;;;5.20;2.80;;;;;;;;;;4842275;29;20029;-75
2021/12/10 07:12:27;;;;;;;4.25;3.00;;;;;;;;;;4842359;29;20038;-74
2021/12/10 07:14:56;;;;;;;8.98;5.53;;;;;;;;;;4845224;29;20034;-71
2021/12/10 07:17:22;;;;;;;10.07;5.00;;;;;;;;;;4844199;29;20038;-73
2021/12/10 07:19:47;;;;;;;8.82;4.50;;;;;;;;;;4842681;29;20082;-70
2021/12/10 07:22:14;;;;;;;8.90;4.43;;;;;;;;;;4841972;29;20134;-70
2021/12/10 07:24:39;;;;;;;6.63;4.00;;;;;;;;;;4841819;29;20363;-71
2021/12/10 07:27:09;;;;;;;7.22;4.63;;;;;;;;;;4841252;29;20163;-72
2021/12/10 07:29:35;;;;;;;4.68;3.45;;;;;;;;;;4841719;29;20038;-75
2021/12/10 07:32:01;;;;;;;8.25;4.10;;;;;;;;;;4841062;29;20030;-72
2021/12/10 07:34:27;;;;;;;10.07;4.38;;;;;;;;;;4841285;29;20165;-73
2021/12/10 07:36:53;;;;;;;11.10;6.80;;;;;;;;;;4842546;29;20022;-73
2021/12/10 07:39:19;;;;;;;14.52;8.15;;;;;;;;;;4841958;29;20053;-74
2021/12/10 07:41:44;;;;;;;14.98;9.63;;;;;;;;;;4842242;29;20056;-72
2021/12/10 07:44:12;;;;;;;9.45;6.32;;;;;;;;;;4851687;29;20076;-73
2021/12/10 07:46:39;;;;;;;10.20;7.28;;;;;;;;;;4860652;29;20093;-72
2021/12/10 07:49:15;;;;;;;14.32;8.93;;;;;;;;;;4860763;29;20057;-72
2021/12/10 07:51:44;;;;;;;12.57;9.15;;;;;;;;;;4860216;29;20055;-71
2021/12/10 07:54:11;;;;;;;10.63;7.00;;;;;;;;;;4860195;29;20037;-75
2021/12/10 07:56:38;;;;;;;52.40;34.70;;;;;;;;;;4857397;29;20667;-74
2021/12/10 07:59:04;;;;;;;28.98;20.13;;;;;;;;;;4851318;29;20454;-72
2021/12/10 08:01:31;;;;;;;22.77;14.43;;;;;;;;;;4862269;29;20041;-69
2021/12/10 08:03:58;;;;;;;27.77;11.57;;;;;;;;;;4849377;29;20042;-68
2021/12/10 08:06:26;;;;;;;21.92;11.52;;;;;;;;;;4844274;29;20112;-70
2021/12/10 08:08:53;;;;;;;21.52;8.95;;;;;;;;;;4851918;29;20113;-70
2021/12/10 08:11:20;;;;;;;18.83;9.38;;;;;;;;;;4855577;29;20069;-70
2021/12/10 08:13:47;;;;;;;22.33;9.48;;;;;;;;;;4860398;29;20070;-75
2021/12/10 08:16:13;;;;;;;21.17;7.03;;;;;;;;;;4860481;29;20476;-77
2021/12/10 08:18:40;;;;;;;9.70;4.40;;;;;;;;;;4860145;29;20120;-70
2021/12/10 08:21:06;;;;;;;16.25;5.85;;;;;;;;;;4860500;29;20041;-74
2021/12/10 08:23:33;;;;;;;17.92;6.65;;;;;;;;;;4860360;29;20132;-69
2021/12/10 08:25:59;;;;;;;16.58;3.85;;;;;;;;;;4860057;29;20537;-74
2021/12/10 08:28:26;;;;;;;16.85;4.75;;;;;;;;;;4854561;29;20026;-73
2021/12/10 08:30:55;;;;;;;8.02;2.53;;;;;;;;;;4860431;29;20517;-73
2021/12/10 08:33:22;;;;;;;25.77;3.55;;;;;;;;;;4860969;29;20054;-73
2021/12/10 08:35:52;;;;;;;14.95;1.77;;;;;;;;;;4860219;29;20088;-72
2021/12/10 08:38:18;;;;;;;14.38;2.83;;;;;;;;;;4860051;29;20037;-74
2021/12/10 08:40:55;;;;;;;13.57;2.50;;;;;;;;;;4859998;29;20089;-74
2021/12/10 08:43:21;;;;;;;20.35;3.10;;;;;;;;;;4859620;29;20734;-75
2021/12/10 08:45:47;;;;;;;27.25;4.78;;;;;;;;;;4854750;29;20034;-74
2021/12/10 08:48:14;;;;;;;23.77;2.83;;;;;;;;;;4857015;29;20034;-75
2021/12/10 08:50:41;;;;;;;16.33;2.28;;;;;;;;;;4860028;29;20105;-73
2021/12/10 08:53:12;;;;;;;21.58;3.55;;;;;;;;;;4860039;29;20037;-73
2021/12/10 08:55:42;;;;;;;15.82;3.15;;;;;;;;;;4853644;29;20052;-74
2021/12/10 08:58:08;;;;;;;13.57;1.98;;;;;;;;;;4845565;29;20053;-74
2021/12/10 09:00:36;;;;;;;6.18;1.52;;;;;;;;;;4841178;29;20328;-74
2021/12/10 09:03:02;;;;;;;18.10;2.45;;;;;;;;;;4841348;29;20493;-75
2021/12/10 09:05:29;;;;;;;19.08;2.33;;;;;;;;;;4841099;29;20041;-72
2021/12/10 09:07:56;;;;;;;19.15;2.17;;;;;;;;;;4840998;29;20030;-74
2021/12/10 09:10:25;;;;;;;33.45;2.67;;;;;;;;;;4841038;29;20042;-75
2021/12/10 09:12:52;;;;;;;16.35;1.85;;;;;;;;;;4841256;29;20026;-72
2021/12/10 09:15:21;;;;;;;13.68;1.75;;;;;;;;;;4841288;29;20037;-75
2021/12/10 09:17:49;;;;;;;28.73;3.60;;;;;;;;;;4841242;29;20037;-73
2021/12/10 09:20:19;;;;;;;12.02;1.95;;;;;;;;;;4840911;29;20030;-75
2021/12/10 09:22:47;;;;;;;14.10;1.98;;;;;;;;;;4840752;29;20042;-74
2021/12/10 09:25:14;;;;;;;4.57;1.23;;;;;;;;;;4840660;29;20026;-72
2021/12/10 09:27:40;;;;;;;14.30;1.25;;;;;;;;;;4840883;29;20148;-71
2021/12/10 09:30:09;;;;;;;16.42;2.17;;;;;;;;;;4843603;29;20038;-72
2021/12/10 09:32:36;;;;;;;7.85;3.00;;;;;;;;;;4844836;29;20048;-72
2021/12/10 09:35:05;;;;;;;10.27;1.70;;;;;;;;;;4844483;29;20126;-72
2021/12/10 09:37:32;;;;;;;4.22;1.15;;;;;;;;;;4844496;29;20045;-73
2021/12/10 09:39:57;;;;;;;11.52;1.58;;;;;;;;;;4844854;29;20440;-74
2021/12/10 09:42:23;;;;;;;18.85;2.53;;;;;;;;;;4843886;29;20054;-71
2021/12/10 09:44:52;;;;;;;8.13;1.92;;;;;;;;;;4844516;29;20034;-73
2021/12/10 09:47:18;;;;;;;9.93;1.63;;;;;;;;;;4858236;29;20054;-70
2021/12/10 09:49:47;;;;;;;7.63;1.50;;;;;;;;;;4844020;29;20030;-71
2021/12/10 09:52:16;;;;;;;6.60;1.63;;;;;;;;;;4844477;29;20042;-71
2021/12/10 09:54:42;;;;;;;11.35;1.27;;;;;;;;;;4853391;29;20473;-71
2021/12/10 09:57:18;;;;;;;4.90;1.83;;;;;;;;;;4862511;29;20378;-75
2021/12/10 09:59:50;;;;;;;17.73;2.28;;;;;;;;;;4861134;29;20037;-73
2021/12/10 10:02:18;;;;;;;9.60;2.05;;;;;;;;;;4861618;29;20068;-70
2021/12/10 10:04:49;;;;;;;5.95;1.73;;;;;;;;;;4862499;29;20074;-71
2021/12/10 10:07:19;;;;;;;7.13;1.30;;;;;;;;;;4862765;29;20048;-72
2021/12/10 10:09:49;;;;;;;7.55;3.42;;;;;;;;;;4862477;29;20569;-72
2021/12/10 10:12:20;;;;;;;8.90;2.75;;;;;;;;;;4862784;29;20042;-73
2021/12/10 10:14:46;;;;;;;24.75;2.92;;;;;;;;;;4876793;29;20133;-70
2021/12/10 10:17:12;;;;;;;23.40;2.75;;;;;;;;;;4856522;29;20485;-68
2021/12/10 10:19:40;;;;;;;13.63;1.77;;;;;;;;;;4862438;29;20045;-69
2021/12/10 10:22:10;;;;;;;12.45;2.20;;;;;;;;;;4858405;29;20048;-75
2021/12/10 10:24:36;;;;;;;19.08;3.17;;;;;;;;;;4848882;29;20577;-69
2021/12/10 10:27:14;;;;;;;10.40;2.42;;;;;;;;;;4847426;29;20030;-73
2021/12/10 10:29:45;;;;;;;14.45;1.80;;;;;;;;;;4841992;29;20044;-70
2021/12/10 10:32:15;;;;;;;6.82;1.52;;;;;;;;;;4842586;29;20042;-71
2021/12/10 10:34:54;;;;;;;10.20;1.77;;;;;;;;;;4841805;29;20057;-72
2021/12/10 10:37:21;;;;;;;15.65;1.90;;;;;;;;;;4842296;29;20473;-75
2021/12/10 10:39:48;;;;;;;6.55;1.55;;;;;;;;;;4841445;29;20036;-74
2021/12/10 10:42:18;;;;;;;12.80;1.85;;;;;;;;;;4842232;29;20052;-76
2021/12/10 10:44:44;;;;;;;10.65;1.50;;;;;;;;;;4842746;29;20040;-77
2021/12/10 10:47:10;;;;;;;7.60;1.63;;;;;;;;;;4843117;29;20026;-76
2021/12/10 10:49:49;;;;;;;19.95;2.38;;;;;;;;;;4860003;29;20070;-73
2021/12/10 10:52:33;;;;;;;9.57;1.40;;;;;;;;;;4860781;29;20052;-76
2021/12/10 10:55:25;;;;;;;9.32;1.60;;;;;;;;;;4860437;29;20048;-70
2021/12/10 10:58:03;;;;;;;28.50;2.67;;;;;;;;;;4841869;29;20046;-77
2021/12/10 11:00:50;;;;;;;8.45;1.70;;;;;;;;;;4855423;29;20034;-75
2021/12/10 11:03:21;;;;;;;5.03;1.20;;;;;;;;;;4857818;29;20046;-76
2021/12/10 11:05:50;;;;;;;6.40;2.33;;;;;;;;;;4849049;29;20492;-72
2021/12/10 11:08:26;;;;;;;1.95;1.10;;;;;;;;;;4859567;29;20054;-77
2021/12/10 11:10:52;;;;;;;5.18;1.70;;;;;;;;;;4859932;29;20037;-75
2021/12/10 11:13:21;;;;;;;3.33;1.50;;;;;;;;;;4851989;29;20070;-77
2021/12/10 11:16:02;;;;;;;4.03;1.70;;;;;;;;;;4855138;29;20040;-79
2021/12/10 11:18:37;;;;;;;5.03;1.80;;;;;;;;;;4846948;29;20044;-74
2021/12/10 11:21:03;;;;;;;9.05;2.78;;;;;;;;;;4843718;29;20045;-76
2021/12/10 11:23:31;;;;;;;4.65;1.70;;;;;;;;;;4852194;29;20030;-76
2021/12/10 11:25:57;;;;;;;3.65;1.80;;;;;;;;;;4859938;29;20473;-74
2021/12/10 11:28:31;;;;;;;4.38;2.17;;;;;;;;;;4860032;29;20085;-71
2021/12/10 11:31:07;;;;;;;3.70;1.85;;;;;;;;;;4859419;29;20043;-73
2021/12/10 11:33:36;;;;;;;4.68;2.13;;;;;;;;;;4859947;29;20041;-75
2021/12/10 11:36:23;;;;;;;5.90;2.10;;;;;;;;;;4860801;29;20036;-76
2021/12/10 11:38:55;;;;;;;8.10;2.28;;;;;;;;;;4860404;29;20053;-72
2021/12/10 11:41:26;;;;;;;10.32;2.90;;;;;;;;;;4860298;29;20063;-72
2021/12/10 11:49:17;;;;;;;4.25;1.70;;;;;;;;;;4858253;29;20037;-71
2021/12/10 11:52:21;;;;;;;2.75;1.50;;;;;;;;;;4860395;29;20041;-73
2021/12/10 11:54:56;;;;;;;6.10;2.25;;;;;;;;;;4838188;29;20053;-69
2021/12/10 11:57:23;;;;;;;3.58;1.80;;;;;;;;;;4860187;29;20109;-70
2021/12/10 12:00:17;;;;;;;3.17;1.70;;;;;;;;;;4860006;29;20488;-70
2021/12/10 12:02:54;;;;;;;;;;;;;;;;;;4856073;29;20038;-69
2021/12/10 12:05:24;;;;;;;2.38;1.33;;;;;;;;;;4857959;29;19975;-71
2021/12/10 12:07:52;;;;;;;1.80;1.00;;;;;;;;;;4842303;29;20037;-70
2021/12/10 12:10:26;;;;;;;1.98;0.90;;;;;;;;;;4840617;29;20034;-73
2021/12/10 12:12:52;;;;;;;2.22;1.30;;;;;;;;;;4841755;29;20409;-72
2021/12/10 12:15:27;;;;;;;3.00;1.20;;;;;;;;;;4840956;29;20030;-70
2021/12/10 12:18:03;;;;;;;3.00;1.40;;;;;;;;;;4855622;29;20030;-70
2021/12/10 12:20:43;;;;;;;18.52;3.70;;;;;;;;;;4841731;29;20042;-70
2021/12/10 12:26:02;;;;;;;3.88;2.10;;;;;;;;;;4841419;29;20033;-70
2021/12/10 12:28:28;;;;;;;12.02;2.75;;;;;;;;;;4855303;29;20393;-71
2021/12/10 12:30:59;;;;;;;6.13;2.03;;;;;;;;;;4848123;29;20085;-71
2021/12/10 12:33:27;;;;;;;6.63;1.95;;;;;;;;;;4839763;29;20447;-70
2021/12/10 12:35:54;;;;;;;11.93;4.28;;;;;;;;;;4839636;29;20050;-71
2021/12/10 12:38:29;;;;;;;5.63;2.42;;;;;;;;;;4844458;29;20375;-76
2021/12/10 12:41:25;;;;;;;5.13;2.45;;;;;;;;;;4859014;29;20041;-76
2021/12/10 12:44:27;;;;;;;4.95;2.15;;;;;;;;;;4858909;29;20485;-76
2021/12/10 12:47:06;;;;;;;15.68;2.97;;;;;;;;;;4859455;29;20033;-72
2021/12/10 12:49:57;;;;;;;7.75;2.03;;;;;;;;;;4857461;29;20041;-74
2021/12/10 12:52:35;;;;;;;11.57;2.33;;;;;;;;;;4859269;29;20086;-73
2021/12/10 12:55:17;;;;;;;9.00;2.63;;;;;;;;;;4859503;29;20038;-73
2021/12/10 12:57:55;;;;;;;10.80;2.80;;;;;;;;;;4859336;29;20042;-76
2021/12/10 13:00:35;;;;;;;28.52;3.58;;;;;;;;;;4843968;29;20501;-71
2021/12/10 13:03:16;;;;;;;15.85;2.50;;;;;;;;;;4840464;29;20042;-74
2021/12/10 13:05:55;;;;;;;6.95;2.80;;;;;;;;;;4840822;29;20079;-72
2021/12/10 13:08:28;;;;;;;11.77;3.40;;;;;;;;;;4844339;29;20569;-74
2021/12/10 13:11:24;;;;;;;15.95;3.47;;;;;;;;;;4850665;29;20510;-74
2021/12/10 13:14:01;;;;;;;5.90;2.17;;;;;;;;;;4857119;29;20052;-73
2021/12/10 13:16:49;;;;;;;10.32;3.00;;;;;;;;;;4858670;29;20037;-71
2021/12/10 13:19:20;;;;;;;15.85;2.83;;;;;;;;;;4860485;29;20089;-78
2021/12/10 13:21:57;;;;;;;11.60;3.63;;;;;;;;;;4845951;29;20429;-75
2021/12/10 13:24:23;;;;;;;9.60;2.50;;;;;;;;;;4841780;29;20038;-76
2021/12/10 13:26:49;;;;;;;27.35;4.55;;;;;;;;;;4841351;29;20037;-72
2021/12/10 13:29:16;;;;;;;17.02;2.65;;;;;;;;;;4840928;29;20098;-71
2021/12/10 13:31:43;;;;;;;8.30;2.22;;;;;;;;;;4848447;29;20095;-72
2021/12/10 13:34:09;;;;;;;13.77;2.28;;;;;;;;;;4858461;29;20038;-73
2021/12/10 13:36:36;;;;;;;10.05;1.80;;;;;;;;;;4852619;29;20022;-71
2021/12/10 13:39:05;;;;;;;4.47;1.70;;;;;;;;;;4849678;29;20038;-72
2021/12/10 13:41:33;;;;;;;14.43;2.80;;;;;;;;;;4845659;29;20370;-73
2021/12/10 13:47:02;;;;;;;13.60;2.08;;;;;;;;;;4850100;29;20038;-70
2021/12/10 13:49:50;;;;;;;14.57;2.92;;;;;;;;;;4850667;29;20038;-74
2021/12/10 13:52:41;;;;;;;9.45;2.92;;;;;;;;;;4849917;29;20610;-70
2021/12/10 13:55:14;;;;;;;10.82;2.25;;;;;;;;;;4857992;29;20475;-71
2021/12/10 13:57:40;;;;;;;;;;;;;;;;;;4854327;29;20034;-69
2021/12/10 14:00:09;;;;;;;10.52;2.80;;;;;;;;;;4839649;29;19924;-70
2021/12/10 14:02:45;;;;;;;20.92;4.90;;;;;;;;;;4838183;29;20053;-70
2021/12/10 14:05:22;;;;;;;10.00;3.03;;;;;;;;;;4843058;29;20151;-68
2021/12/10 14:08:01;;;;;;;16.42;3.80;;;;;;;;;;4860621;29;20124;-68
2021/12/10 14:10:40;;;;;;;15.45;3.22;;;;;;;;;;4840282;29;20366;-70
2021/12/10 14:13:09;;;;;;;13.75;2.50;;;;;;;;;;4841972;29;20490;-69
2021/12/10 14:16:00;;;;;;;8.20;2.13;;;;;;;;;;4854705;29;20542;-69
2021/12/10 14:18:29;;;;;;;10.00;2.60;;;;;;;;;;4857335;29;20426;-70
2021/12/10 14:21:06;;;;;;;9.23;2.80;;;;;;;;;;4855194;29;20041;-68
2021/12/10 14:23:39;;;;;;;11.25;2.60;;;;;;;;;;4861682;29;20116;-73
2021/12/10 14:26:19;;;;;;;7.65;3.03;;;;;;;;;;4854092;29;20030;-72
2021/12/10 14:29:01;;;;;;;9.48;2.53;;;;;;;;;;4855648;29;20065;-69
2021/12/10 14:31:47;;;;;;;7.45;2.50;;;;;;;;;;4861184;29;20076;-70
2021/12/10 14:34:22;;;;;;;11.73;2.83;;;;;;;;;;4859044;29;20156;-70
2021/12/10 14:37:06;;;;;;;8.25;2.72;;;;;;;;;;4851557;29;20042;-70
2021/12/10 14:39:32;;;;;;;9.60;2.40;;;;;;;;;;4848011;29;20135;-69
2021/12/10 14:42:07;;;;;;;9.45;3.13;;;;;;;;;;4852231;29;20038;-70
2021/12/10 14:44:35;;;;;;;30.83;4.45;;;;;;;;;;4855862;29;20548;-70
2021/12/10 14:47:14;;;;;;;13.65;2.72;;;;;;;;;;4843283;29;20153;-70
2021/12/10 14:49:46;;;;;;;7.28;3.05;;;;;;;;;;4842257;29;20132;-69
2021/12/10 14:52:27;;;;;;;20.42;3.90;;;;;;;;;;4843902;29;20042;-69
2021/12/10 14:55:29;;;;;;;15.90;4.28;;;;;;;;;;4852314;29;20040;-70
2021/12/10 14:58:03;;;;;;;10.75;4.53;;;;;;;;;;4831869;29;20050;-68
2021/12/10 15:00:30;;;;;;;10.77;4.25;;;;;;;;;;4854739;29;20038;-69
2021/12/10 15:03:07;;;;;;;13.68;4.10;;;;;;;;;;4843404;29;20129;-70
2021/12/10 15:05:51;;;;;;;11.07;3.15;;;;;;;;;;4854393;29;20390;-70
2021/12/10 15:08:52;;;;;;;6.47;3.38;;;;;;;;;;4842836;29;20030;-68
2021/12/10 15:11:44;;;;;;;4.65;3.00;;;;;;;;;;4850310;29;20442;-70
2021/12/10 15:14:22;;;;;;;24.50;5.70;;;;;;;;;;4849428;29;20034;-69